createdAt,value
2023-03-27T00:01:35.892Z,100.00
2023-03-27T00:04:03.812Z,100.00
2023-03-27T00:06:34.659Z,100.00
2023-03-27T00:09:03.857Z,100.00
2023-03-27T00:11:31.870Z,100.00
2023-03-27T00:13:59.964Z,100.00
2023-03-27T00:16:27.733Z,100.00
2023-03-27T00:18:55.556Z,100.00
2023-03-27T00:21:23.236Z,100.00
2023-03-27T00:23:51.425Z,100.00
2023-03-27T00:26:19.044Z,100.00
2023-03-27T00:28:47.640Z,100.00
2023-03-27T00:31:16.127Z,100.00
2023-03-27T00:33:44.331Z,100.00
2023-03-27T00:36:11.353Z,100.00
2023-03-27T00:38:39.840Z,100.00
2023-03-27T00:41:09.190Z,100.00
2023-03-27T00:43:36.800Z,100.00
2023-03-27T00:46:14.651Z,100.00
2023-03-27T00:48:41.840Z,100.00
2023-03-27T00:51:09.443Z,100.00
2023-03-27T00:53:37.313Z,100.00
2023-03-27T00:56:05.226Z,100.00
2023-03-27T00:58:34.410Z,100.00
2023-03-27T01:01:02.585Z,100.00
2023-03-27T01:03:53.793Z,100.00
2023-03-27T01:06:21.555Z,100.00
2023-03-27T01:08:48.786Z,100.00
2023-03-27T01:11:31.206Z,100.00
2023-03-27T01:14:11.040Z,100.00
2023-03-27T01:17:07.793Z,100.00
2023-03-27T01:20:05.881Z,100.00
2023-03-27T01:22:39.378Z,100.00
2023-03-27T01:25:24.516Z,100.00
2023-03-27T01:28:18.261Z,100.00
2023-03-27T01:30:51.210Z,100.00
2023-03-27T01:33:31.034Z,100.00
2023-03-27T01:36:46.520Z,100.00
2023-03-27T01:39:28.650Z,100.00
2023-03-27T01:42:06.996Z,100.00
2023-03-27T01:44:45.777Z,100.00
2023-03-27T01:47:32.655Z,100.00
2023-03-27T01:50:08.352Z,100.00
2023-03-27T01:52:40.914Z,100.00
2023-03-27T01:55:11.664Z,100.00
2023-03-27T01:57:50.392Z,100.00
2023-03-27T02:00:22.036Z,100.00
2023-03-27T02:03:16.503Z,100.00
2023-03-27T02:05:51.031Z,100.00
2023-03-27T02:08:21.350Z,100.00
2023-03-27T02:10:50.571Z,100.00
2023-03-27T02:13:21.494Z,100.00
2023-03-27T02:15:48.907Z,100.00
2023-03-27T02:18:23.306Z,100.00
2023-03-27T02:20:53.782Z,100.00
2023-03-27T02:23:23.097Z,100.00
2023-03-27T02:25:50.859Z,100.00
2023-03-27T02:28:36.716Z,100.00
2023-03-27T02:31:35.352Z,100.00
2023-03-27T02:34:27.099Z,100.00
2023-03-27T02:37:36.014Z,100.00
2023-03-27T02:40:14.980Z,100.00
2023-03-27T02:42:51.839Z,100.00
2023-03-27T02:45:26.546Z,100.00
2023-03-27T02:48:06.044Z,100.00
2023-03-27T02:50:38.386Z,100.00
2023-03-27T02:53:05.933Z,100.00
2023-03-27T02:55:36.321Z,100.00
2023-03-27T02:58:08.582Z,100.00
2023-03-27T03:00:39.731Z,100.00
2023-03-27T03:03:15.351Z,100.00
2023-03-27T03:05:44.108Z,100.00
2023-03-27T03:08:11.790Z,100.00
2023-03-27T03:10:45.146Z,100.00
2023-03-27T03:13:13.410Z,100.00
2023-03-27T03:15:41.248Z,100.00
2023-03-27T03:18:09.244Z,100.00
2023-03-27T03:20:36.956Z,100.00
2023-03-27T03:23:05.075Z,100.00
2023-03-27T03:25:33.202Z,100.00
2023-03-27T03:28:01.319Z,100.00
2023-03-27T03:30:31.866Z,100.00
2023-03-27T03:33:00.307Z,100.00
2023-03-27T03:35:28.278Z,100.00
2023-03-27T03:37:58.891Z,100.00
2023-03-27T03:40:26.837Z,100.00
2023-03-27T03:42:54.454Z,100.00
2023-03-27T03:45:22.493Z,100.00
2023-03-27T03:47:53.119Z,100.00
2023-03-27T03:50:21.331Z,100.00
2023-03-27T03:52:49.293Z,100.00
2023-03-27T03:55:17.720Z,100.00
2023-03-27T03:57:50.239Z,100.00
2023-03-27T04:00:18.732Z,100.00
2023-03-27T04:02:46.472Z,100.00
2023-03-27T04:05:14.476Z,100.00
2023-03-27T04:07:42.463Z,100.00
2023-03-27T04:10:13.585Z,100.00
2023-03-27T04:12:41.264Z,100.00
2023-03-27T04:15:09.360Z,100.00
2023-03-27T04:17:38.434Z,100.00
2023-03-27T04:20:08.925Z,100.00
2023-03-27T04:22:38.226Z,100.00
2023-03-27T04:25:08.365Z,100.00
2023-03-27T04:27:36.370Z,100.00
2023-03-27T04:30:04.857Z,100.00
2023-03-27T04:32:32.986Z,100.00
2023-03-27T04:35:00.972Z,100.00
2023-03-27T04:37:29.046Z,100.00
2023-03-27T04:39:58.405Z,100.00
2023-03-27T04:42:27.185Z,100.00
2023-03-27T04:44:55.567Z,100.00
2023-03-27T04:47:23.928Z,100.00
2023-03-27T04:49:52.118Z,100.00
2023-03-27T04:52:20.807Z,100.00
2023-03-27T04:54:48.823Z,100.00
2023-03-27T04:57:19.202Z,100.00
2023-03-27T04:59:47.208Z,100.00
2023-03-27T05:02:16.239Z,100.00
2023-03-27T05:04:44.734Z,100.00
2023-03-27T05:07:12.385Z,100.00
2023-03-27T05:09:40.142Z,100.00
2023-03-27T05:12:08.948Z,100.00
2023-03-27T05:14:36.817Z,100.00
2023-03-27T05:17:05.621Z,100.00
2023-03-27T05:19:34.201Z,100.00
2023-03-27T05:22:02.704Z,100.00
2023-03-27T05:24:30.589Z,100.00
2023-03-27T05:26:58.720Z,100.00
2023-03-27T05:29:26.887Z,100.00
2023-03-27T05:31:54.743Z,100.00
2023-03-27T05:34:22.791Z,100.00
2023-03-27T05:36:51.288Z,100.00
2023-03-27T05:39:19.215Z,100.00
2023-03-27T05:41:47.584Z,100.00
2023-03-27T05:44:16.129Z,100.00
2023-03-27T05:46:44.068Z,100.00
2023-03-27T05:49:12.282Z,100.00
2023-03-27T05:51:40.422Z,100.00
2023-03-27T05:54:15.155Z,100.00
2023-03-27T05:56:44.065Z,100.00
2023-03-27T05:59:11.840Z,100.00
2023-03-27T06:01:42.862Z,100.00
2023-03-27T06:04:11.182Z,100.00
2023-03-27T06:06:39.374Z,100.00
2023-03-27T06:09:07.811Z,100.00
2023-03-27T06:11:35.500Z,100.00
2023-03-27T06:14:02.944Z,100.00
2023-03-27T06:16:30.782Z,100.00
2023-03-27T06:18:59.176Z,100.00
2023-03-27T06:21:27.544Z,100.00
2023-03-27T06:23:56.409Z,100.00
2023-03-27T06:26:24.896Z,100.00
2023-03-27T06:28:54.324Z,100.00
2023-03-27T06:31:22.159Z,100.00
2023-03-27T06:33:50.291Z,100.00
2023-03-27T06:36:18.197Z,100.00
2023-03-27T06:38:46.475Z,100.00
2023-03-27T06:41:15.549Z,100.00
2023-03-27T06:43:43.622Z,100.00
2023-03-27T06:46:11.929Z,100.00
2023-03-27T06:48:40.000Z,100.00
2023-03-27T06:51:08.075Z,100.00
2023-03-27T06:53:38.106Z,100.00
2023-03-27T06:56:09.271Z,100.00
2023-03-27T06:58:37.424Z,100.00
2023-03-27T07:01:06.426Z,100.00
2023-03-27T07:03:34.543Z,100.00
2023-03-27T07:06:02.320Z,100.00
2023-03-27T07:08:29.979Z,100.00
2023-03-27T07:11:10.588Z,100.00
2023-03-27T07:13:41.245Z,100.00
2023-03-27T07:16:14.167Z,100.00
2023-03-27T07:18:42.219Z,100.00
2023-03-27T07:21:10.263Z,100.00
2023-03-27T07:23:38.631Z,100.00
2023-03-27T07:26:08.277Z,100.00
2023-03-27T07:28:38.766Z,100.00
2023-03-27T07:31:25.995Z,100.00
2023-03-27T07:33:58.723Z,100.00
2023-03-27T07:36:26.612Z,100.00
2023-03-27T07:38:54.525Z,100.00
2023-03-27T07:41:22.914Z,100.00
2023-03-27T07:43:50.659Z,100.00
2023-03-27T07:46:19.046Z,100.00
2023-03-27T07:48:47.154Z,100.00
2023-03-27T07:51:15.451Z,100.00
2023-03-27T07:53:43.746Z,100.00
2023-03-27T07:56:11.675Z,100.00
2023-03-27T07:58:39.770Z,100.00
2023-03-27T08:01:07.865Z,100.00
2023-03-27T08:03:36.091Z,100.00
2023-03-27T08:06:03.441Z,100.00
2023-03-27T08:08:31.380Z,100.00
2023-03-27T08:10:59.803Z,100.00
2023-03-27T08:13:27.858Z,100.00
2023-03-27T08:16:07.986Z,100.00
2023-03-27T08:18:36.546Z,100.00
2023-03-27T08:21:04.548Z,100.00
2023-03-27T08:23:33.895Z,100.00
2023-03-27T08:26:01.713Z,100.00
2023-03-27T08:28:32.731Z,100.00
2023-03-27T08:31:02.930Z,100.00
2023-03-27T08:33:31.043Z,100.00
2023-03-27T08:35:59.514Z,100.00
2023-03-27T08:38:28.709Z,100.00
2023-03-27T08:40:59.208Z,100.00
2023-03-27T08:43:28.950Z,100.00
2023-03-27T08:45:59.208Z,100.00
2023-03-27T08:48:35.364Z,100.00
2023-03-27T08:51:05.608Z,100.00
2023-03-27T08:53:47.555Z,100.00
2023-03-27T08:56:15.423Z,100.00
2023-03-27T08:58:43.587Z,100.00
2023-03-27T09:01:55.382Z,90.74
2023-03-27T09:04:28.181Z,85.16
2023-03-27T09:07:07.341Z,84.76
2023-03-27T09:10:00.628Z,81.81
2023-03-27T09:13:06.781Z,85.62
2023-03-27T09:15:37.733Z,75.33
2023-03-27T09:18:13.593Z,75.20
2023-03-27T09:20:46.431Z,71.24
2023-03-27T09:23:43.063Z,73.24
2023-03-27T09:26:23.355Z,67.32
2023-03-27T09:28:56.249Z,59.78
2023-03-27T09:31:33.457Z,59.78
2023-03-27T09:34:03.988Z,64.98
2023-03-27T09:36:32.368Z,60.54
2023-03-27T09:39:05.848Z,61.87
2023-03-27T09:41:44.974Z,63.90
2023-03-27T09:44:21.114Z,63.74
2023-03-27T09:46:50.132Z,66.63
2023-03-27T09:49:25.522Z,63.75
2023-03-27T09:51:53.826Z,65.04
2023-03-27T09:54:22.453Z,63.24
2023-03-27T09:57:13.706Z,61.94
2023-03-27T09:59:58.579Z,64.06
2023-03-27T10:02:30.121Z,66.74
2023-03-27T10:04:59.311Z,65.08
2023-03-27T10:07:27.464Z,63.01
2023-03-27T10:10:15.869Z,59.77
2023-03-27T10:12:43.491Z,60.42
2023-03-27T10:15:49.240Z,55.54
2023-03-27T10:18:32.506Z,52.40
2023-03-27T10:21:01.616Z,51.19
2023-03-27T10:23:30.536Z,51.63
2023-03-27T10:26:04.441Z,50.42
2023-03-27T10:28:35.341Z,48.63
2023-03-27T10:31:31.831Z,46.62
2023-03-27T10:34:02.131Z,44.69
2023-03-27T10:36:33.688Z,45.42
2023-03-27T10:39:09.046Z,46.01
2023-03-27T10:41:37.211Z,46.02
2023-03-27T10:44:13.022Z,45.73
2023-03-27T10:46:41.360Z,44.83
2023-03-27T10:49:25.647Z,41.79
2023-03-27T10:52:03.206Z,47.62
2023-03-27T10:54:51.773Z,42.97
2023-03-27T10:57:32.000Z,42.45
2023-03-27T11:00:19.798Z,42.78
2023-03-27T11:02:54.408Z,39.84
2023-03-27T11:05:24.198Z,35.59
2023-03-27T11:07:55.918Z,33.76
2023-03-27T11:10:58.385Z,32.87
2023-03-27T11:13:32.423Z,33.29
2023-03-27T11:16:21.285Z,32.51
2023-03-27T11:19:10.804Z,28.96
2023-03-27T11:21:44.667Z,27.94
2023-03-27T11:24:28.762Z,27.08
2023-03-27T11:27:12.274Z,26.58
2023-03-27T11:29:52.744Z,28.49
2023-03-27T11:32:33.708Z,27.93
2023-03-27T11:35:24.385Z,26.40
2023-03-27T11:38:03.529Z,27.68
2023-03-27T11:40:36.438Z,26.37
2023-03-27T11:43:04.390Z,25.96
2023-03-27T11:45:38.178Z,27.46
2023-03-27T11:48:30.115Z,25.71
2023-03-27T11:51:03.490Z,24.83
2023-03-27T11:53:33.481Z,22.92
2023-03-27T11:56:09.138Z,22.89
2023-03-27T11:59:12.983Z,23.83
2023-03-27T12:02:10.049Z,25.15
2023-03-27T12:04:51.541Z,19.96
2023-03-27T12:07:36.092Z,21.21
2023-03-27T12:10:28.519Z,20.53
2023-03-27T12:13:17.624Z,22.56
2023-03-27T12:16:03.012Z,20.99
2023-03-27T12:19:00.562Z,20.08
2023-03-27T12:21:48.803Z,22.25
2023-03-27T12:24:53.407Z,21.38
2023-03-27T12:28:01.433Z,18.42
2023-03-27T12:30:40.149Z,20.79
2023-03-27T12:33:07.128Z,19.76
2023-03-27T12:35:38.621Z,17.89
2023-03-27T12:38:32.254Z,18.52
2023-03-27T12:41:16.074Z,16.18
2023-03-27T12:43:46.846Z,16.19
2023-03-27T12:46:29.094Z,17.31
2023-03-27T12:49:08.099Z,17.81
2023-03-27T12:51:53.743Z,17.44
2023-03-27T12:54:30.537Z,18.21
2023-03-27T12:57:35.923Z,18.51
2023-03-27T13:00:10.434Z,21.21
2023-03-27T13:03:09.761Z,19.37
2023-03-27T13:05:39.939Z,21.84
2023-03-27T13:08:30.145Z,21.23
2023-03-27T13:11:19.473Z,22.35
2023-03-27T13:13:46.584Z,22.08
2023-03-27T13:16:45.720Z,23.60
2023-03-27T13:19:36.775Z,25.07
2023-03-27T13:22:28.446Z,24.54
2023-03-27T13:25:11.396Z,24.17
2023-03-27T13:27:50.154Z,20.33
2023-03-27T13:30:41.426Z,18.63
2023-03-27T13:33:12.988Z,18.21
2023-03-27T13:35:41.959Z,17.63
2023-03-27T13:38:10.680Z,18.21
2023-03-27T13:40:39.888Z,15.13
2023-03-27T13:43:15.248Z,15.32
2023-03-27T13:45:47.180Z,15.68
2023-03-27T13:48:38.911Z,16.56
2023-03-27T13:51:31.123Z,18.28
2023-03-27T13:54:19.977Z,16.38
2023-03-27T13:56:55.465Z,17.94
2023-03-27T14:00:03.335Z,19.83
2023-03-27T14:02:36.509Z,21.95
2023-03-27T14:05:35.678Z,20.21
2023-03-27T14:08:45.017Z,23.10
2023-03-27T14:11:37.959Z,25.50
2023-03-27T14:14:23.453Z,26.48
2023-03-27T14:17:28.096Z,26.79
2023-03-27T14:20:00.907Z,27.50
2023-03-27T14:22:54.027Z,27.49
2023-03-27T14:25:49.814Z,27.33
2023-03-27T14:28:53.960Z,27.65
2023-03-27T14:31:21.321Z,27.98
2023-03-27T14:34:01.893Z,28.54
2023-03-27T14:36:30.337Z,29.39
2023-03-27T14:39:16.621Z,30.65
2023-03-27T14:41:53.007Z,31.99
2023-03-27T14:44:20.729Z,32.38
2023-03-27T14:46:49.058Z,31.44
2023-03-27T14:49:24.776Z,30.29
2023-03-27T14:51:53.725Z,28.69
2023-03-27T14:54:27.182Z,27.26
2023-03-27T14:57:00.474Z,25.39
2023-03-27T14:59:30.600Z,25.71
2023-03-27T15:01:58.546Z,25.91
2023-03-27T15:04:27.147Z,26.95
2023-03-27T15:06:56.912Z,27.47
2023-03-27T15:09:24.971Z,27.27
2023-03-27T15:11:56.192Z,27.71
2023-03-27T15:14:30.375Z,28.05
2023-03-27T15:17:15.663Z,27.85
2023-03-27T15:19:53.849Z,28.44
2023-03-27T15:22:24.059Z,28.89
2023-03-27T15:24:57.304Z,30.17
2023-03-27T15:27:31.805Z,30.61
2023-03-27T15:30:02.365Z,30.14
2023-03-27T15:32:34.146Z,28.89
2023-03-27T15:35:03.482Z,28.25
2023-03-27T15:37:31.882Z,28.39
2023-03-27T15:40:09.513Z,28.48
2023-03-27T15:42:48.184Z,29.21
2023-03-27T15:45:23.125Z,29.93
2023-03-27T15:48:06.859Z,29.79
2023-03-27T15:50:34.950Z,29.21
2023-03-27T15:53:03.309Z,28.87
2023-03-27T15:55:44.649Z,29.65
2023-03-27T15:58:20.518Z,30.41
2023-03-27T16:00:48.229Z,30.55
2023-03-27T16:03:25.524Z,30.42
2023-03-27T16:05:56.757Z,28.60
2023-03-27T16:08:34.946Z,27.10
2023-03-27T16:11:02.310Z,24.86
2023-03-27T16:13:54.928Z,22.45
2023-03-27T16:16:27.233Z,20.68
2023-03-27T16:18:55.377Z,20.23
2023-03-27T16:21:23.852Z,21.52
2023-03-27T16:23:51.920Z,22.90
2023-03-27T16:26:23.135Z,23.27
2023-03-27T16:28:50.777Z,24.77
2023-03-27T16:31:20.043Z,24.99
2023-03-27T16:33:48.203Z,25.69
2023-03-27T16:36:16.225Z,26.01
2023-03-27T16:38:44.019Z,28.81
2023-03-27T16:41:15.968Z,27.15
2023-03-27T16:43:44.382Z,26.66
2023-03-27T16:46:29.776Z,27.32
2023-03-27T16:49:17.007Z,26.95
2023-03-27T16:52:04.475Z,26.75
2023-03-27T16:54:33.721Z,26.86
2023-03-27T16:57:01.119Z,26.02
2023-03-27T16:59:29.218Z,26.20
2023-03-27T17:01:57.383Z,25.38
2023-03-27T17:04:25.685Z,25.05
2023-03-27T17:06:53.548Z,24.15
2023-03-27T17:09:22.738Z,24.35
2023-03-27T17:11:53.947Z,24.82
2023-03-27T17:14:22.103Z,26.03
2023-03-27T17:16:51.265Z,26.40
2023-03-27T17:19:18.852Z,27.37
2023-03-27T17:21:47.205Z,26.71
2023-03-27T17:24:14.912Z,26.18
2023-03-27T17:26:43.458Z,26.16
2023-03-27T17:29:11.498Z,25.30
2023-03-27T17:31:39.477Z,26.22
2023-03-27T17:34:07.870Z,27.46
2023-03-27T17:36:44.936Z,29.78
2023-03-27T17:39:15.504Z,30.24
2023-03-27T17:41:44.110Z,31.46
2023-03-27T17:44:13.267Z,33.21
2023-03-27T17:46:41.200Z,32.25
2023-03-27T17:49:09.005Z,32.17
2023-03-27T17:51:37.205Z,26.72
2023-03-27T17:54:05.898Z,26.94
2023-03-27T17:56:33.932Z,27.54
2023-03-27T17:59:02.859Z,27.49
2023-03-27T18:01:34.030Z,27.66
2023-03-27T18:04:01.838Z,26.36
2023-03-27T18:06:30.310Z,25.74
2023-03-27T18:08:58.235Z,25.35
2023-03-27T18:11:26.018Z,24.94
2023-03-27T18:13:54.086Z,25.53
2023-03-27T18:16:23.231Z,25.40
2023-03-27T18:18:52.581Z,24.40
2023-03-27T18:21:20.985Z,23.80
2023-03-27T18:23:49.117Z,21.09
2023-03-27T18:26:16.738Z,19.42
2023-03-27T18:28:47.936Z,19.05
2023-03-27T18:31:17.837Z,19.31
2023-03-27T18:33:46.060Z,18.73
2023-03-27T18:36:14.187Z,18.83
2023-03-27T18:38:42.320Z,18.28
2023-03-27T18:41:10.415Z,18.63
2023-03-27T18:43:38.855Z,19.14
2023-03-27T18:46:08.483Z,19.61
2023-03-27T18:48:36.489Z,19.46
2023-03-27T18:51:07.971Z,19.64
2023-03-27T18:53:35.816Z,19.97
2023-03-27T18:56:03.890Z,20.05
2023-03-27T18:58:32.281Z,18.59
2023-03-27T19:01:00.081Z,19.12
2023-03-27T19:03:30.365Z,18.67
2023-03-27T19:06:00.411Z,18.59
2023-03-27T19:08:28.616Z,18.79
2023-03-27T19:10:57.900Z,20.21
2023-03-27T19:13:25.956Z,18.49
2023-03-27T19:15:54.034Z,18.27
2023-03-27T19:18:22.139Z,19.28
2023-03-27T19:20:50.333Z,19.17
2023-03-27T19:23:18.207Z,18.79
2023-03-27T19:25:49.588Z,18.19
2023-03-27T19:28:17.448Z,18.81
2023-03-27T19:30:48.402Z,18.17
2023-03-27T19:33:15.908Z,19.28
2023-03-27T19:35:44.087Z,19.54
2023-03-27T19:38:11.959Z,20.68
2023-03-27T19:40:39.663Z,20.16
2023-03-27T19:43:07.796Z,19.95
2023-03-27T19:45:36.021Z,20.40
2023-03-27T19:48:04.099Z,21.37
2023-03-27T19:50:31.433Z,21.16
2023-03-27T19:53:08.190Z,20.51
2023-03-27T19:55:36.914Z,20.75
2023-03-27T19:58:04.502Z,21.25
2023-03-27T20:00:32.280Z,22.39
2023-03-27T20:03:00.357Z,22.16
2023-03-27T20:05:29.733Z,22.30
2023-03-27T20:07:57.380Z,22.76
2023-03-27T20:10:27.069Z,23.21
2023-03-27T20:12:54.771Z,23.22
2023-03-27T20:15:22.609Z,23.71
2023-03-27T20:17:53.563Z,23.31
2023-03-27T20:20:21.576Z,23.11
2023-03-27T20:22:57.511Z,22.99
2023-03-27T20:25:25.455Z,23.62
2023-03-27T20:27:53.113Z,23.44
2023-03-27T20:30:21.483Z,23.33
2023-03-27T20:32:49.155Z,23.39
2023-03-27T20:35:24.184Z,23.54
2023-03-27T20:37:57.798Z,23.62
2023-03-27T20:40:26.357Z,22.66
2023-03-27T20:43:03.487Z,22.64
2023-03-27T20:45:31.561Z,23.37
2023-03-27T20:48:05.681Z,23.14
2023-03-27T20:50:35.362Z,22.82
2023-03-27T20:53:04.856Z,22.66
2023-03-27T20:55:41.561Z,22.86
2023-03-27T20:58:20.145Z,23.29
2023-03-27T21:00:48.883Z,22.06
2023-03-27T21:03:16.844Z,21.62
2023-03-27T21:05:44.805Z,20.60
2023-03-27T21:08:12.884Z,20.42
2023-03-27T21:10:40.763Z,20.72
2023-03-27T21:13:08.345Z,20.79
2023-03-27T21:15:36.373Z,21.02
2023-03-27T21:18:05.423Z,20.49
2023-03-27T21:20:35.360Z,20.88
2023-03-27T21:23:03.634Z,20.69
2023-03-27T21:25:31.714Z,20.86
2023-03-27T21:27:59.344Z,20.56
2023-03-27T21:30:46.539Z,21.52
2023-03-27T21:33:16.178Z,23.17
2023-03-27T21:35:45.840Z,22.93
2023-03-27T21:38:14.595Z,21.74
2023-03-27T21:40:41.598Z,21.23
2023-03-27T21:43:09.484Z,21.01
2023-03-27T21:45:40.434Z,21.62
2023-03-27T21:48:10.571Z,21.54
2023-03-27T21:50:39.739Z,21.56
2023-03-27T21:53:08.021Z,22.86
2023-03-27T21:55:35.938Z,23.85
2023-03-27T21:58:04.472Z,22.17
2023-03-27T22:00:32.574Z,21.86
2023-03-27T22:03:01.040Z,24.48
2023-03-27T22:05:29.111Z,23.43
2023-03-27T22:07:57.755Z,21.75
2023-03-27T22:10:25.443Z,21.25
2023-03-27T22:12:53.273Z,21.36
2023-03-27T22:15:21.211Z,21.49
2023-03-27T22:17:49.142Z,21.77
2023-03-27T22:20:17.220Z,20.72
2023-03-27T22:22:45.111Z,20.41
2023-03-27T22:25:13.782Z,20.73
2023-03-27T22:27:42.035Z,20.84
2023-03-27T22:30:12.781Z,20.72
2023-03-27T22:32:43.418Z,20.51
2023-03-27T22:35:11.365Z,21.23
2023-03-27T22:37:39.471Z,21.75
2023-03-27T22:40:10.574Z,21.82
2023-03-27T22:42:38.330Z,22.52
2023-03-27T22:45:06.928Z,22.20
2023-03-27T22:47:36.120Z,21.50
2023-03-27T22:50:06.455Z,22.60
2023-03-27T22:52:34.072Z,21.94
2023-03-27T22:55:01.998Z,22.04
2023-03-27T22:57:30.107Z,22.11
2023-03-27T22:59:58.162Z,22.87
2023-03-27T23:02:26.007Z,22.25
2023-03-27T23:04:54.183Z,22.02
2023-03-27T23:07:21.923Z,21.87
2023-03-27T23:09:50.383Z,22.53
2023-03-27T23:12:18.482Z,24.82
2023-03-27T23:14:46.299Z,23.29
2023-03-27T23:17:14.106Z,23.41
2023-03-27T23:19:41.995Z,24.05
2023-03-27T23:22:10.545Z,23.71
2023-03-27T23:24:39.003Z,24.50
2023-03-27T23:27:08.589Z,24.59
2023-03-27T23:29:36.740Z,25.04
2023-03-27T23:32:05.050Z,24.83
2023-03-27T23:34:33.177Z,28.21
2023-03-27T23:37:00.773Z,28.46
2023-03-27T23:39:28.517Z,27.00
2023-03-27T23:41:57.239Z,28.77
2023-03-27T23:44:25.303Z,29.68
2023-03-27T23:46:56.511Z,29.96
2023-03-27T23:49:24.550Z,30.07
2023-03-27T23:51:53.141Z,31.13
2023-03-27T23:54:22.265Z,30.59
2023-03-27T23:56:50.528Z,31.36
2023-03-27T23:59:18.653Z,31.68
